createdAt,value
2019-03-01T00:00:34.085Z,20.50
2019-03-01T00:01:34.104Z,19.90
2019-03-01T00:02:34.112Z,20.20
2019-03-01T00:03:34.124Z,19.90
2019-03-01T00:04:34.185Z,19.70
2019-03-01T00:05:34.151Z,21.40
2019-03-01T00:06:34.164Z,19.90
2019-03-01T00:07:34.175Z,20.10
2019-03-01T00:08:34.189Z,20.60
2019-03-01T00:09:34.202Z,19.80
2019-03-01T00:10:34.218Z,21.00
2019-03-01T00:11:34.229Z,20.50
2019-03-01T00:12:34.244Z,20.50
2019-03-01T00:13:34.255Z,20.70
2019-03-01T00:14:34.267Z,20.80
2019-03-01T00:15:34.280Z,20.60
2019-03-01T00:16:34.293Z,21.30
2019-03-01T00:17:34.305Z,20.40
2019-03-01T00:18:34.319Z,21.70
2019-03-01T00:19:34.331Z,21.70
2019-03-01T00:20:35.717Z,21.40
2019-03-01T00:21:34.357Z,22.00
2019-03-01T00:22:34.371Z,20.80
2019-03-01T00:23:34.384Z,20.40
2019-03-01T00:24:34.401Z,20.50
2019-03-01T00:25:34.410Z,20.50
2019-03-01T00:26:34.425Z,20.90
2019-03-01T00:27:34.436Z,21.10
2019-03-01T00:28:34.448Z,19.80
2019-03-01T00:29:34.461Z,20.90
2019-03-01T00:30:34.476Z,19.80
2019-03-01T00:31:34.489Z,20.50
2019-03-01T00:32:34.500Z,20.20
2019-03-01T00:33:34.515Z,20.90
2019-03-01T00:34:34.525Z,21.00
2019-03-01T00:35:34.539Z,19.70
2019-03-01T00:36:34.565Z,19.80
2019-03-01T00:37:34.567Z,21.30
2019-03-01T00:38:34.579Z,19.50
2019-03-01T00:39:34.936Z,19.30
2019-03-01T00:40:34.605Z,20.00
2019-03-01T00:41:34.617Z,20.10
2019-03-01T00:42:34.631Z,19.60
2019-03-01T00:43:34.646Z,19.20
2019-03-01T00:44:34.657Z,20.90
2019-03-01T00:45:34.670Z,18.70
2019-03-01T00:46:34.685Z,19.80
2019-03-01T00:47:34.695Z,20.30
2019-03-01T00:48:34.708Z,20.10
2019-03-01T00:49:34.760Z,20.10
2019-03-01T00:50:34.780Z,20.80
2019-03-01T00:51:34.750Z,19.90
2019-03-01T00:52:34.763Z,20.10
2019-03-01T00:53:34.775Z,19.40
2019-03-01T00:54:34.788Z,19.90
2019-03-01T00:55:34.801Z,19.10
2019-03-01T00:56:34.819Z,19.70
2019-03-01T00:57:34.830Z,20.20
2019-03-01T00:58:34.844Z,20.00
2019-03-01T00:59:34.854Z,20.00
2019-03-01T01:00:34.867Z,19.80
2019-03-01T01:01:34.883Z,19.30
2019-03-01T01:02:34.895Z,19.70
2019-03-01T01:03:34.909Z,19.90
2019-03-01T01:04:34.927Z,20.90
2019-03-01T01:05:34.934Z,18.70
2019-03-01T01:06:34.949Z,19.00
2019-03-01T01:07:34.967Z,20.10
2019-03-01T01:08:34.976Z,18.00
2019-03-01T01:09:34.989Z,20.10
2019-03-01T01:10:35.003Z,18.70
2019-03-01T01:11:35.016Z,19.50
2019-03-01T01:12:35.028Z,19.40
2019-03-01T01:13:35.042Z,18.60
2019-03-01T01:14:35.055Z,18.80
2019-03-01T01:15:35.069Z,18.30
2019-03-01T01:16:35.083Z,19.00
2019-03-01T01:17:35.096Z,18.30
2019-03-01T01:18:35.109Z,18.10
2019-03-01T01:19:35.123Z,19.20
2019-03-01T01:20:35.137Z,18.40
2019-03-01T01:21:35.150Z,18.80
2019-03-01T01:22:35.165Z,17.50
2019-03-01T01:23:35.183Z,17.60
2019-03-01T01:24:35.271Z,18.50
2019-03-01T01:25:35.288Z,19.10
2019-03-01T01:26:35.271Z,18.10
2019-03-01T01:27:35.269Z,18.90
2019-03-01T01:28:35.291Z,18.30
2019-03-01T01:29:35.333Z,18.80
2019-03-01T01:30:35.346Z,17.30
2019-03-01T01:31:35.345Z,18.20
2019-03-01T01:32:35.336Z,18.00
2019-03-01T01:33:35.320Z,17.70
2019-03-01T01:34:35.329Z,17.30
2019-03-01T01:35:35.339Z,18.40
2019-03-01T01:36:35.352Z,17.70
2019-03-01T01:37:35.366Z,18.20
2019-03-01T01:38:35.380Z,17.80
2019-03-01T01:39:35.394Z,17.90
2019-03-01T01:40:35.406Z,17.70
2019-03-01T01:41:35.423Z,18.30
2019-03-01T01:42:35.436Z,18.20
2019-03-01T01:43:35.446Z,19.00
2019-03-01T01:44:35.459Z,19.10
2019-03-01T01:45:35.479Z,17.00
2019-03-01T01:46:35.497Z,17.80
2019-03-01T01:47:35.503Z,17.70
2019-03-01T01:48:35.515Z,18.90
2019-03-01T01:49:35.529Z,19.10
2019-03-01T01:50:35.553Z,18.30
2019-03-01T01:51:35.556Z,17.80
2019-03-01T01:52:35.571Z,17.60
2019-03-01T01:53:35.585Z,17.70
2019-03-01T01:54:35.599Z,18.50
2019-03-01T01:55:35.614Z,17.20
2019-03-01T01:56:35.625Z,18.30
2019-03-01T01:57:35.639Z,17.40
2019-03-01T01:58:35.655Z,16.80
2019-03-01T01:59:35.669Z,17.90
2019-03-01T02:00:35.703Z,17.00
2019-03-01T02:01:35.694Z,18.10
2019-03-01T02:02:35.709Z,17.70
2019-03-01T02:03:35.759Z,18.60
2019-03-01T02:04:35.735Z,18.20
2019-03-01T02:05:35.749Z,18.50
2019-03-01T02:06:35.765Z,18.00
2019-03-01T02:07:35.777Z,18.60
2019-03-01T02:08:35.792Z,18.60
2019-03-01T02:09:35.803Z,18.00
2019-03-01T02:10:35.819Z,18.10
2019-03-01T02:11:35.831Z,18.30
2019-03-01T02:12:35.847Z,18.50
2019-03-01T02:13:35.859Z,18.30
2019-03-01T02:14:35.874Z,18.80
2019-03-01T02:15:35.886Z,18.30
2019-03-01T02:16:35.900Z,18.00
2019-03-01T02:17:35.914Z,19.00
2019-03-01T02:18:35.928Z,18.10
2019-03-01T02:19:35.945Z,19.40
2019-03-01T02:20:35.959Z,19.10
2019-03-01T02:21:35.970Z,17.90
2019-03-01T02:22:35.990Z,18.70
2019-03-01T02:23:35.994Z,18.10
2019-03-01T02:24:36.010Z,18.30
2019-03-01T02:25:36.025Z,18.40
2019-03-01T02:26:36.043Z,18.50
2019-03-01T02:27:36.052Z,17.50
2019-03-01T02:28:36.065Z,17.90
2019-03-01T02:29:36.079Z,18.50
2019-03-01T02:30:36.096Z,18.80
2019-03-01T02:31:36.107Z,18.20
2019-03-01T02:32:36.127Z,18.70
2019-03-01T02:33:36.137Z,17.80
2019-03-01T02:34:36.150Z,17.90
2019-03-01T02:35:36.165Z,19.90
2019-03-01T02:36:36.181Z,18.20
2019-03-01T02:37:36.201Z,17.80
2019-03-01T02:38:36.206Z,17.60
2019-03-01T02:39:36.222Z,19.20
2019-03-01T02:40:36.232Z,18.70
2019-03-01T02:41:36.250Z,17.90
2019-03-01T02:42:36.263Z,17.80
2019-03-01T02:43:36.274Z,18.80
2019-03-01T02:44:36.288Z,17.40
2019-03-01T02:45:36.308Z,18.40
2019-03-01T02:46:36.321Z,17.10
2019-03-01T02:47:36.334Z,17.80
2019-03-01T02:48:36.345Z,18.60
2019-03-01T02:49:36.360Z,18.90
2019-03-01T02:50:36.393Z,16.90
2019-03-01T02:51:36.387Z,17.80
2019-03-01T02:52:36.410Z,17.90
2019-03-01T02:53:36.415Z,17.50
2019-03-01T02:54:36.430Z,18.70
2019-03-01T02:55:36.443Z,17.10
2019-03-01T02:56:36.465Z,16.80
2019-03-01T02:57:36.471Z,17.00
2019-03-01T02:58:36.487Z,17.40
2019-03-01T02:59:36.498Z,17.30
2019-03-01T03:00:36.512Z,16.80
2019-03-01T03:01:36.526Z,18.80
2019-03-01T03:02:36.545Z,18.00
2019-03-01T03:03:36.556Z,18.10
2019-03-01T03:04:36.571Z,17.80
2019-03-01T03:05:36.584Z,16.70
2019-03-01T03:06:36.597Z,18.10
2019-03-01T03:07:36.612Z,18.40
2019-03-01T03:08:36.631Z,18.10
2019-03-01T03:09:36.642Z,17.80
2019-03-01T03:10:36.656Z,17.30
2019-03-01T03:11:36.669Z,17.20
2019-03-01T03:12:36.683Z,16.90
2019-03-01T03:13:36.699Z,16.50
2019-03-01T03:14:36.715Z,18.40
2019-03-01T03:15:36.725Z,18.10
2019-03-01T03:16:36.742Z,16.90
2019-03-01T03:17:36.760Z,17.50
2019-03-01T03:18:36.771Z,18.70
2019-03-01T03:19:36.783Z,17.60
2019-03-01T03:20:36.806Z,16.20
2019-03-01T03:21:36.813Z,17.20
2019-03-01T03:22:36.826Z,16.80
2019-03-01T03:23:36.874Z,18.00
2019-03-01T03:24:36.854Z,17.60
2019-03-01T03:25:36.870Z,16.70
2019-03-01T03:26:36.883Z,17.00
2019-03-01T03:27:36.909Z,18.00
2019-03-01T03:28:36.910Z,17.40
2019-03-01T03:29:36.927Z,17.30
2019-03-01T03:30:36.941Z,18.20
2019-03-01T03:31:36.953Z,17.00
2019-03-01T03:32:36.977Z,17.70
2019-03-01T03:33:36.983Z,17.50
2019-03-01T03:34:36.996Z,18.30
2019-03-01T03:35:37.012Z,18.30
2019-03-01T03:36:37.113Z,18.10
2019-03-01T03:37:37.132Z,18.00
2019-03-01T03:38:37.110Z,18.20
2019-03-01T03:39:37.114Z,18.00
2019-03-01T03:40:37.107Z,17.80
2019-03-01T03:41:37.133Z,17.70
2019-03-01T03:42:37.169Z,18.30
2019-03-01T03:43:37.175Z,17.80
2019-03-01T03:44:37.185Z,17.20
2019-03-01T03:45:37.167Z,16.50
2019-03-01T03:46:37.186Z,17.00
2019-03-01T03:47:37.187Z,17.20
2019-03-01T03:48:37.203Z,18.10
2019-03-01T03:49:37.216Z,18.40
2019-03-01T03:50:37.229Z,17.80
2019-03-01T03:51:37.241Z,17.60
2019-03-01T03:52:37.257Z,17.40
2019-03-01T03:53:37.270Z,18.60
2019-03-01T03:54:37.284Z,18.80
2019-03-01T03:55:37.296Z,17.40
2019-03-01T03:56:37.309Z,18.50
2019-03-01T03:57:37.333Z,18.80
2019-03-01T03:58:37.340Z,18.20
2019-03-01T03:59:37.374Z,17.90
2019-03-01T04:00:37.370Z,17.50
2019-03-01T04:01:37.395Z,17.50
2019-03-01T04:02:37.399Z,18.70
2019-03-01T04:03:37.411Z,18.40
2019-03-01T04:04:37.428Z,17.40
2019-03-01T04:05:37.442Z,18.40
2019-03-01T04:06:37.456Z,19.00
2019-03-01T04:07:37.471Z,18.60
2019-03-01T04:08:37.484Z,19.40
2019-03-01T04:09:37.498Z,18.20
2019-03-01T04:10:37.513Z,18.30
2019-03-01T04:11:37.527Z,18.70
2019-03-01T04:12:37.543Z,18.70
2019-03-01T04:13:37.558Z,19.80
2019-03-01T04:14:37.571Z,19.10
2019-03-01T04:15:37.584Z,19.50
2019-03-01T04:16:37.621Z,18.80
2019-03-01T04:17:37.614Z,19.40
2019-03-01T04:18:37.629Z,17.90
2019-03-01T04:19:37.643Z,18.50
2019-03-01T04:20:37.659Z,19.00
2019-03-01T04:21:37.670Z,17.60
2019-03-01T04:22:37.684Z,20.20
2019-03-01T04:23:37.698Z,18.20
2019-03-01T04:24:37.715Z,20.20
2019-03-01T04:25:37.726Z,18.10
2019-03-01T04:26:37.743Z,18.90
2019-03-01T04:27:37.755Z,18.60
2019-03-01T04:28:37.773Z,19.50
2019-03-01T04:29:37.786Z,19.10
2019-03-01T04:30:37.804Z,19.60
2019-03-01T04:31:37.820Z,19.90
2019-03-01T04:32:37.829Z,19.40
2019-03-01T04:33:37.844Z,19.80
2019-03-01T04:34:37.869Z,19.90
2019-03-01T04:35:37.871Z,19.60
2019-03-01T04:36:37.890Z,19.50
2019-03-01T04:37:37.902Z,19.00
2019-03-01T04:38:37.916Z,20.30
2019-03-01T04:39:37.935Z,19.30
2019-03-01T04:40:37.944Z,19.70
2019-03-01T04:41:37.959Z,20.60
2019-03-01T04:42:37.973Z,20.10
2019-03-01T04:43:37.988Z,21.40
2019-03-01T04:44:38.003Z,19.90
2019-03-01T04:45:38.017Z,20.80
2019-03-01T04:46:38.031Z,20.20
2019-03-01T04:47:38.049Z,20.00
2019-03-01T04:48:38.059Z,19.70
2019-03-01T04:49:38.076Z,20.70
2019-03-01T04:50:38.089Z,19.30
2019-03-01T04:51:40.298Z,20.60
2019-03-01T04:52:38.117Z,19.60
2019-03-01T04:53:38.132Z,20.50
2019-03-01T04:54:38.148Z,20.30
2019-03-01T04:55:38.160Z,20.50
2019-03-01T04:56:38.177Z,20.10
2019-03-01T04:57:38.190Z,19.60
2019-03-01T04:58:38.205Z,20.40
2019-03-01T04:59:38.220Z,21.10
2019-03-01T05:00:38.234Z,20.40
2019-03-01T05:01:38.249Z,21.80
2019-03-01T05:02:38.263Z,21.40
2019-03-01T05:03:38.277Z,19.80
2019-03-01T05:04:38.290Z,22.40
2019-03-01T05:05:38.313Z,23.90
2019-03-01T05:06:38.319Z,25.40
2019-03-01T05:07:38.335Z,25.20
2019-03-01T05:08:38.350Z,25.50
2019-03-01T05:09:38.363Z,25.20
2019-03-01T05:10:38.379Z,27.00
2019-03-01T05:11:38.391Z,27.10
2019-03-01T05:12:38.424Z,27.20
2019-03-01T05:13:38.424Z,28.60
2019-03-01T05:14:38.434Z,27.20
2019-03-01T05:15:38.448Z,27.40
2019-03-01T05:16:38.462Z,27.80
2019-03-01T05:17:38.480Z,29.10
2019-03-01T05:18:38.492Z,27.70
2019-03-01T05:19:38.507Z,27.50
2019-03-01T05:20:38.522Z,27.90
2019-03-01T05:21:38.567Z,27.60
2019-03-01T05:22:38.549Z,27.90
2019-03-01T05:23:38.562Z,28.50
2019-03-01T05:24:38.576Z,28.10
2019-03-01T05:25:38.592Z,28.80
2019-03-01T05:26:38.606Z,29.20
2019-03-01T05:27:38.619Z,29.50
2019-03-01T05:28:38.634Z,33.20
2019-03-01T05:29:38.648Z,31.50
2019-03-01T05:30:38.665Z,32.50
2019-03-01T05:31:38.677Z,31.80
2019-03-01T05:32:38.692Z,33.90
2019-03-01T05:33:38.706Z,32.00
2019-03-01T05:34:38.720Z,32.30
2019-03-01T05:35:38.734Z,33.20
2019-03-01T05:36:38.750Z,32.90
2019-03-01T05:37:38.765Z,34.80
2019-03-01T05:38:38.778Z,34.00
2019-03-01T05:39:38.803Z,33.80
2019-03-01T05:40:38.807Z,32.10
2019-03-01T05:41:38.820Z,33.60
2019-03-01T05:42:38.834Z,33.40
2019-03-01T05:43:38.845Z,32.90
2019-03-01T05:44:38.874Z,33.20
2019-03-01T05:45:38.967Z,33.70
2019-03-01T05:46:38.950Z,33.90
2019-03-01T05:47:38.949Z,33.60
2019-03-01T05:48:38.941Z,32.70
2019-03-01T05:49:39.011Z,34.60
2019-03-01T05:50:39.006Z,33.00
2019-03-01T05:51:39.036Z,31.60
2019-03-01T05:52:39.001Z,32.20
2019-03-01T05:53:39.029Z,31.90
2019-03-01T05:54:39.009Z,32.00
2019-03-01T05:55:39.019Z,31.30
2019-03-01T05:56:39.041Z,32.30
2019-03-01T05:57:39.047Z,31.00
2019-03-01T05:58:39.068Z,32.00
2019-03-01T05:59:39.076Z,32.60
2019-03-01T06:00:39.090Z,33.40
2019-03-01T06:01:39.108Z,31.00
2019-03-01T06:02:39.121Z,30.30
2019-03-01T06:03:39.135Z,31.00
2019-03-01T06:04:39.148Z,31.40
2019-03-01T06:05:39.204Z,32.10
2019-03-01T06:06:39.176Z,30.50
2019-03-01T06:07:39.189Z,31.90
2019-03-01T06:08:39.207Z,31.40
2019-03-01T06:09:39.220Z,30.70
2019-03-01T06:10:39.237Z,31.10
2019-03-01T06:11:39.248Z,28.20
2019-03-01T06:12:39.261Z,30.20
2019-03-01T06:13:39.280Z,31.50
2019-03-01T06:14:39.299Z,29.90
2019-03-01T06:15:39.308Z,30.80
2019-03-01T06:16:40.180Z,32.20
2019-03-01T06:17:39.342Z,31.40
2019-03-01T06:18:39.357Z,32.40
2019-03-01T06:19:39.365Z,30.20
2019-03-01T06:20:39.379Z,28.80
2019-03-01T06:21:39.395Z,29.90
2019-03-01T06:22:39.412Z,29.90
2019-03-01T06:23:39.423Z,29.30
2019-03-01T06:24:39.441Z,28.30
2019-03-01T06:25:39.452Z,28.10
2019-03-01T06:26:39.467Z,30.40
2019-03-01T06:27:39.482Z,29.50
2019-03-01T06:28:39.498Z,30.50
2019-03-01T06:29:39.513Z,29.20
2019-03-01T06:30:39.525Z,29.40
2019-03-01T06:31:39.540Z,30.00
2019-03-01T06:32:39.554Z,30.90
2019-03-01T06:33:39.571Z,32.20
2019-03-01T06:34:39.584Z,29.80
2019-03-01T06:35:39.600Z,31.70
2019-03-01T06:36:39.614Z,32.30
2019-03-01T06:37:39.629Z,31.90
2019-03-01T06:38:39.642Z,30.80
2019-03-01T06:39:39.657Z,31.50
2019-03-01T06:40:39.675Z,32.60
2019-03-01T06:41:39.688Z,31.60
2019-03-01T06:42:39.700Z,33.40
2019-03-01T06:43:39.715Z,30.90
2019-03-01T06:44:39.733Z,32.60
2019-03-01T06:45:39.746Z,30.40
2019-03-01T06:46:39.760Z,31.10
2019-03-01T06:47:39.774Z,30.70
2019-03-01T06:48:39.790Z,30.80
2019-03-01T06:49:39.804Z,31.30
2019-03-01T06:50:39.832Z,30.70
2019-03-01T06:51:39.832Z,29.80
2019-03-01T06:52:39.850Z,31.30
2019-03-01T06:53:39.865Z,31.90
2019-03-01T06:54:39.878Z,31.90
2019-03-01T06:55:39.892Z,30.50
2019-03-01T06:56:39.907Z,30.40
2019-03-01T06:57:39.923Z,31.70
2019-03-01T06:58:39.943Z,30.60
2019-03-01T06:59:39.951Z,32.90
2019-03-01T07:00:49.483Z,31.80
2019-03-01T07:01:39.982Z,30.60
2019-03-01T07:02:39.997Z,32.50
2019-03-01T07:03:40.010Z,31.10
2019-03-01T07:04:40.025Z,30.20
2019-03-01T07:05:40.040Z,31.70
2019-03-01T07:06:40.056Z,30.50
2019-03-01T07:07:40.069Z,32.10
2019-03-01T07:08:40.083Z,30.80
2019-03-01T07:09:40.099Z,31.20
2019-03-01T07:10:40.115Z,31.90
2019-03-01T07:11:40.128Z,32.10
2019-03-01T07:12:40.146Z,29.80
2019-03-01T07:13:40.158Z,31.40
2019-03-01T07:14:40.171Z,32.40
2019-03-01T07:15:40.184Z,33.60
2019-03-01T07:16:40.202Z,32.00
2019-03-01T07:17:40.216Z,31.80
2019-03-01T07:18:40.232Z,30.60
2019-03-01T07:19:40.246Z,32.00
2019-03-01T07:20:40.263Z,32.40
2019-03-01T07:21:40.284Z,30.40
2019-03-01T07:22:40.289Z,33.30
2019-03-01T07:23:40.302Z,31.90
2019-03-01T07:24:40.315Z,32.00
2019-03-01T07:25:42.320Z,33.20
2019-03-01T07:26:40.346Z,32.40
2019-03-01T07:27:40.362Z,33.30
2019-03-01T07:28:40.377Z,32.90
2019-03-01T07:29:40.392Z,32.00
2019-03-01T07:30:40.408Z,34.60
2019-03-01T07:31:40.419Z,33.40
2019-03-01T07:32:40.436Z,35.40
2019-03-01T07:33:40.451Z,36.10
2019-03-01T07:34:40.464Z,36.00
2019-03-01T07:35:40.477Z,36.90
2019-03-01T07:36:40.493Z,36.40
2019-03-01T07:37:40.509Z,37.00
2019-03-01T07:38:40.524Z,35.40
2019-03-01T07:39:40.536Z,35.60
2019-03-01T07:40:40.554Z,36.70
2019-03-01T07:41:40.565Z,36.60
2019-03-01T07:42:40.583Z,37.20
2019-03-01T07:43:40.599Z,36.70
2019-03-01T07:44:40.611Z,35.90
2019-03-01T07:45:40.624Z,37.80
2019-03-01T07:46:40.640Z,36.90
2019-03-01T07:47:40.654Z,37.30
2019-03-01T07:48:40.675Z,35.20
2019-03-01T07:49:40.685Z,39.80
2019-03-01T07:50:40.696Z,37.00
2019-03-01T07:51:40.738Z,36.70
2019-03-01T07:52:40.796Z,38.30
2019-03-01T07:53:42.039Z,40.70
2019-03-01T07:54:40.794Z,37.40
2019-03-01T07:55:40.855Z,40.60
2019-03-01T07:56:40.876Z,37.20
2019-03-01T07:57:40.857Z,36.10
2019-03-01T07:58:40.861Z,36.90
2019-03-01T07:59:40.852Z,35.70
2019-03-01T08:00:40.868Z,37.10
2019-03-01T08:01:40.862Z,35.30
2019-03-01T08:02:40.875Z,36.60
2019-03-01T08:03:40.892Z,38.20
2019-03-01T08:04:40.907Z,38.00
2019-03-01T08:05:40.921Z,36.60
2019-03-01T08:06:40.934Z,36.80
2019-03-01T08:07:40.951Z,34.00
2019-03-01T08:08:40.975Z,33.90
2019-03-01T08:09:41.296Z,36.00
2019-03-01T08:10:40.996Z,37.10
2019-03-01T08:11:41.008Z,34.90
2019-03-01T08:12:42.381Z,34.60
2019-03-01T08:13:41.039Z,36.20
2019-03-01T08:14:41.056Z,37.00
2019-03-01T08:15:44.748Z,37.10
2019-03-01T08:16:41.084Z,36.10
2019-03-01T08:17:41.098Z,36.70
2019-03-01T08:18:44.328Z,38.20
2019-03-01T08:19:41.129Z,37.10
2019-03-01T08:20:41.144Z,39.30
2019-03-01T08:21:42.727Z,38.60
2019-03-01T08:22:48.729Z,37.30
2019-03-01T08:23:41.190Z,37.60
2019-03-01T08:24:42.821Z,37.30
2019-03-01T08:25:41.218Z,39.80
2019-03-01T08:26:41.235Z,39.10
2019-03-01T08:27:41.939Z,38.00
2019-03-01T08:28:41.265Z,41.90
2019-03-01T08:29:41.311Z,37.50
2019-03-01T08:30:42.478Z,38.10
2019-03-01T08:31:41.308Z,40.80
2019-03-01T08:32:41.323Z,37.70
2019-03-01T08:33:43.459Z,40.20
2019-03-01T08:34:41.354Z,38.40
2019-03-01T08:35:41.369Z,37.90
2019-03-01T08:36:42.388Z,39.30
2019-03-01T08:37:41.397Z,39.10
2019-03-01T08:38:41.416Z,38.10
2019-03-01T08:39:41.433Z,36.80
2019-03-01T08:40:41.446Z,39.60
2019-03-01T08:41:41.461Z,38.10
2019-03-01T08:42:41.476Z,37.20
2019-03-01T08:43:44.683Z,36.80
2019-03-01T08:44:41.506Z,38.70
2019-03-01T08:45:41.524Z,37.50
2019-03-01T08:46:42.073Z,35.70
2019-03-01T08:47:41.552Z,36.90
2019-03-01T08:48:41.581Z,36.90
2019-03-01T08:49:41.586Z,35.60
2019-03-01T08:50:41.603Z,38.40
2019-03-01T08:51:41.616Z,37.80
2019-03-01T08:52:41.631Z,36.70
2019-03-01T08:53:41.644Z,35.90
2019-03-01T08:54:41.662Z,38.10
2019-03-01T08:55:41.674Z,38.00
2019-03-01T08:56:41.692Z,37.10
2019-03-01T08:57:44.613Z,41.50
2019-03-01T08:58:42.519Z,37.60
2019-03-01T08:59:41.740Z,37.30
2019-03-01T09:00:41.758Z,36.70
2019-03-01T09:01:44.718Z,37.60
2019-03-01T09:02:41.787Z,38.10
2019-03-01T09:03:41.833Z,37.40
2019-03-01T09:04:50.468Z,36.80
2019-03-01T09:05:41.834Z,38.10
2019-03-01T09:06:41.934Z,37.70
2019-03-01T09:07:41.866Z,36.70
2019-03-01T09:08:42.999Z,36.10
2019-03-01T09:09:41.897Z,35.70
2019-03-01T09:10:41.914Z,35.50
2019-03-01T09:11:44.771Z,37.80
2019-03-01T09:12:41.947Z,36.80
2019-03-01T09:13:41.963Z,35.50
2019-03-01T09:14:41.975Z,38.10
2019-03-01T09:15:41.991Z,36.90
2019-03-01T09:16:42.007Z,36.60
2019-03-01T09:17:42.020Z,35.30
2019-03-01T09:18:42.041Z,38.80
2019-03-01T09:19:42.054Z,37.10
2019-03-01T09:20:42.070Z,37.90
2019-03-01T09:21:44.769Z,36.90
2019-03-01T09:22:42.101Z,37.50
2019-03-01T09:23:42.117Z,38.30
2019-03-01T09:24:42.134Z,38.70
2019-03-01T09:25:44.690Z,37.30
2019-03-01T09:26:42.165Z,38.10
2019-03-01T09:27:42.180Z,37.80
2019-03-01T09:28:42.196Z,37.80
2019-03-01T09:29:42.329Z,38.70
2019-03-01T09:30:43.477Z,37.00
2019-03-01T09:31:42.242Z,37.70
2019-03-01T09:32:42.261Z,36.80
2019-03-01T09:33:42.276Z,37.70
2019-03-01T09:34:42.292Z,36.40
2019-03-01T09:35:43.240Z,38.00
2019-03-01T09:36:42.321Z,38.30
2019-03-01T09:37:42.336Z,37.80
2019-03-01T09:38:42.894Z,38.10
2019-03-01T09:39:42.371Z,37.60
2019-03-01T09:40:42.385Z,35.70
2019-03-01T09:41:42.401Z,37.40
2019-03-01T09:42:42.418Z,35.80
2019-03-01T09:43:42.435Z,35.90
2019-03-01T09:44:42.447Z,37.10
2019-03-01T09:45:45.698Z,37.00
2019-03-01T09:46:42.480Z,36.40
2019-03-01T09:47:42.495Z,37.10
2019-03-01T09:48:45.492Z,35.90
2019-03-01T09:49:42.524Z,40.30
2019-03-01T09:50:42.541Z,39.20
2019-03-01T09:51:43.755Z,37.90
2019-03-01T09:52:42.611Z,38.00
2019-03-01T09:53:42.643Z,37.60
2019-03-01T09:54:42.650Z,37.60
2019-03-01T09:55:42.641Z,37.30
2019-03-01T09:56:42.710Z,37.50
2019-03-01T09:57:42.727Z,37.60
2019-03-01T09:58:42.726Z,37.40
2019-03-01T09:59:42.704Z,39.80
2019-03-01T10:00:42.700Z,39.60
2019-03-01T10:01:42.710Z,38.70
2019-03-01T10:02:42.727Z,37.70
2019-03-01T10:03:42.739Z,37.00
2019-03-01T10:04:42.755Z,36.50
2019-03-01T10:05:42.771Z,34.60
2019-03-01T10:06:42.786Z,36.30
2019-03-01T10:07:42.803Z,35.20
2019-03-01T10:08:42.816Z,36.70
2019-03-01T10:09:42.830Z,37.30
2019-03-01T10:10:42.851Z,36.70
2019-03-01T10:11:42.862Z,36.90
2019-03-01T10:12:42.879Z,34.70
2019-03-01T10:13:42.896Z,35.80
2019-03-01T10:14:42.908Z,36.10
2019-03-01T10:15:42.928Z,34.80
2019-03-01T10:16:42.940Z,34.30
2019-03-01T10:17:42.998Z,35.80
2019-03-01T10:18:42.974Z,34.90
2019-03-01T10:19:42.984Z,36.40
2019-03-01T10:20:43.006Z,34.70
2019-03-01T10:21:43.016Z,33.70
2019-03-01T10:22:43.034Z,35.60
2019-03-01T10:23:43.049Z,33.80
2019-03-01T10:24:43.066Z,33.70
2019-03-01T10:25:43.084Z,33.10
2019-03-01T10:26:43.095Z,32.70
2019-03-01T10:27:43.110Z,32.70
2019-03-01T10:28:43.132Z,30.80
2019-03-01T10:29:43.141Z,30.90
2019-03-01T10:30:43.158Z,30.20
2019-03-01T10:31:43.172Z,29.40
2019-03-01T10:32:43.190Z,30.50
2019-03-01T10:33:43.207Z,29.30
2019-03-01T10:34:43.223Z,29.40
2019-03-01T10:35:43.235Z,29.30
2019-03-01T10:36:43.252Z,30.60
2019-03-01T10:37:43.272Z,30.30
2019-03-01T10:38:44.085Z,29.50
2019-03-01T10:39:43.300Z,30.50
2019-03-01T10:40:43.315Z,30.60
2019-03-01T10:41:43.333Z,29.80
2019-03-01T10:42:43.351Z,31.50
2019-03-01T10:43:43.363Z,29.40
2019-03-01T10:44:43.429Z,30.50
2019-03-01T10:45:43.394Z,30.20
2019-03-01T10:46:43.410Z,30.40
2019-03-01T10:47:43.447Z,30.00
2019-03-01T10:48:43.445Z,30.10
2019-03-01T10:49:43.458Z,29.60
2019-03-01T10:50:43.473Z,29.70
2019-03-01T10:51:43.488Z,29.20
2019-03-01T10:52:43.512Z,30.00
2019-03-01T10:53:43.520Z,29.50
2019-03-01T10:54:43.537Z,28.50
2019-03-01T10:55:43.552Z,30.70
2019-03-01T10:56:43.571Z,31.70
2019-03-01T10:57:43.584Z,32.30
2019-03-01T10:58:43.699Z,31.60
2019-03-01T10:59:43.614Z,31.20
2019-03-01T11:00:43.630Z,31.40
2019-03-01T11:01:43.646Z,30.40
2019-03-01T11:02:43.662Z,29.70
2019-03-01T11:03:43.675Z,29.80
2019-03-01T11:04:43.693Z,28.80
2019-03-01T11:05:43.707Z,28.70
2019-03-01T11:06:43.722Z,28.90
2019-03-01T11:07:43.740Z,29.50
2019-03-01T11:08:43.758Z,31.00
2019-03-01T11:09:43.769Z,30.20
2019-03-01T11:10:43.788Z,29.50
2019-03-01T11:11:43.802Z,29.80
2019-03-01T11:12:43.819Z,28.30
2019-03-01T11:13:43.830Z,28.90
2019-03-01T11:14:43.857Z,29.10
2019-03-01T11:15:43.868Z,30.40
2019-03-01T11:16:43.880Z,27.80
2019-03-01T11:17:43.900Z,27.00
2019-03-01T11:18:43.909Z,26.10
2019-03-01T11:19:43.928Z,26.60
2019-03-01T11:20:43.941Z,25.50
2019-03-01T11:21:43.956Z,26.50
2019-03-01T11:22:43.969Z,25.00
2019-03-01T11:23:43.985Z,25.40
2019-03-01T11:24:43.999Z,26.30
2019-03-01T11:25:44.014Z,24.50
2019-03-01T11:26:44.033Z,24.90
2019-03-01T11:27:44.046Z,25.80
2019-03-01T11:28:44.066Z,24.20
2019-03-01T11:29:44.081Z,25.50
2019-03-01T11:30:44.100Z,26.20
2019-03-01T11:31:44.109Z,26.30
2019-03-01T11:32:44.126Z,26.40
2019-03-01T11:33:44.141Z,26.70
2019-03-01T11:34:44.156Z,26.60
2019-03-01T11:35:44.167Z,27.20
2019-03-01T11:36:44.185Z,26.60
2019-03-01T11:37:44.201Z,28.50
2019-03-01T11:38:44.216Z,29.20
2019-03-01T11:39:44.229Z,28.60
2019-03-01T11:40:44.250Z,27.90
2019-03-01T11:41:44.263Z,27.60
2019-03-01T11:42:44.280Z,29.00
2019-03-01T11:43:44.291Z,27.70
2019-03-01T11:44:44.308Z,29.50
2019-03-01T11:45:44.325Z,28.40
2019-03-01T11:46:44.338Z,29.10
2019-03-01T11:47:44.352Z,27.90
2019-03-01T11:48:44.368Z,27.80
2019-03-01T11:49:44.381Z,29.10
2019-03-01T11:50:44.404Z,30.20
2019-03-01T11:51:44.437Z,29.60
2019-03-01T11:52:44.501Z,28.30
2019-03-01T11:53:44.512Z,28.80
2019-03-01T11:54:44.495Z,29.20
2019-03-01T11:55:44.512Z,28.60
2019-03-01T11:56:44.556Z,27.00
2019-03-01T11:57:44.557Z,28.40
2019-03-01T11:58:44.560Z,28.20
2019-03-01T11:59:44.555Z,28.00
2019-03-01T12:00:51.995Z,27.30
2019-03-01T12:01:44.565Z,26.30
2019-03-01T12:02:44.596Z,26.70
2019-03-01T12:03:44.597Z,27.50
2019-03-01T12:04:44.612Z,26.80
2019-03-01T12:05:44.633Z,25.90
2019-03-01T12:06:44.645Z,27.70
2019-03-01T12:07:44.657Z,26.20
2019-03-01T12:08:44.674Z,28.60
2019-03-01T12:09:44.689Z,26.40
2019-03-01T12:10:44.704Z,27.90
2019-03-01T12:11:44.718Z,29.60
2019-03-01T12:12:44.734Z,28.90
2019-03-01T12:13:44.751Z,28.40
2019-03-01T12:14:44.766Z,30.30
2019-03-01T12:15:44.780Z,28.70
2019-03-01T12:16:44.794Z,26.00
2019-03-01T12:17:44.812Z,28.10
2019-03-01T12:18:44.826Z,27.50
2019-03-01T12:19:44.843Z,27.30
2019-03-01T12:20:44.857Z,27.00
2019-03-01T12:21:44.870Z,27.10
2019-03-01T12:22:44.888Z,26.50
2019-03-01T12:23:44.903Z,28.00
2019-03-01T12:24:44.919Z,29.90
2019-03-01T12:25:44.937Z,29.60
2019-03-01T12:26:44.947Z,27.20
2019-03-01T12:27:44.960Z,29.80
2019-03-01T12:28:44.979Z,29.10
2019-03-01T12:29:44.991Z,28.00
2019-03-01T12:30:45.008Z,27.50
2019-03-01T12:31:45.026Z,27.60
2019-03-01T12:32:45.057Z,28.00
2019-03-01T12:33:45.052Z,28.80
2019-03-01T12:34:45.070Z,27.20
2019-03-01T12:35:45.086Z,27.90
2019-03-01T12:36:45.136Z,27.60
2019-03-01T12:37:45.112Z,26.20
2019-03-01T12:38:45.129Z,27.30
2019-03-01T12:39:45.143Z,26.70
2019-03-01T12:40:45.160Z,28.40
2019-03-01T12:41:45.170Z,27.80
2019-03-01T12:42:45.187Z,27.40
2019-03-01T12:43:45.201Z,25.60
2019-03-01T12:44:45.217Z,24.30
2019-03-01T12:45:45.230Z,27.90
2019-03-01T12:46:45.245Z,25.10
2019-03-01T12:47:45.274Z,25.30
2019-03-01T12:48:45.276Z,26.80
2019-03-01T12:49:45.296Z,24.20
2019-03-01T12:50:45.306Z,25.60
2019-03-01T12:51:45.322Z,26.00
2019-03-01T12:52:45.333Z,23.90